Terminal Aerodrome Forecast
Issued by NWS

Current Version | Previous Version | Text Only | Print | Product List | Glossary On
Versions: 1 2 3 4 5 6 7 8 9 10 11 12 13 14 15 16 17 18 19 20 21 22 23 24 25 26 27 28 29 30 31 32 33 34 35 36 37 38 39 40 41 42
995
FTUS43 KDMX 131724
TAFMCW
TAF
KMCW 131724Z 1318/1418 16006KT P6SM BKN090
     FM140000 14010KT P6SM BKN060
     FM140300 14011G16KT P6SM -SN SCT015 BKN028
      TEMPO 1403/1407 2SM -SN BKN015
     FM141100 14016G23KT 2SM -SN SCT009 OVC014=

USA.gov is the U.S. government's official web portal to all federal, state and local government web resources and services.